Time;durP1;ratioP1;P1;durP2;ratioP2;P2;SDS_P1;SDS_P2;PMS_P1;PMS_P2;Temp;Humidity;BMP_temperature;BMP_pressure;BME280_temperature;BME280_humidity;BME280_pressure;Samples;Min_cycle;Max_cycle;Signal;HPM_P1;HPM_P2
2023/05/21 00:00:01;;;;;;;8.57;4.28;;;;;;;14.54;57.31;99848.22;10404072;28;20048;-80
2023/05/21 00:05:14;;;;;;;8.23;4.18;;;;;;;14.53;57.24;99841.31;10375942;28;20085;-80
2023/05/21 00:10:16;;;;;;;7.53;4.28;;;;;;;14.52;57.54;99845.72;10419892;28;20052;-80
2023/05/21 00:15:18;;;;;;;7.95;4.68;;;;;;;14.48;57.51;99836.34;10369385;28;20054;-80
2023/05/21 00:20:20;;;;;;;7.32;4.20;;;;;;;14.30;57.77;99836.94;10378672;28;20047;-80
2023/05/21 00:25:22;;;;;;;9.85;4.80;;;;;;;14.33;57.92;99829.63;10384306;28;20056;-80
2023/05/21 00:30:24;;;;;;;8.48;4.32;;;;;;;14.26;58.15;99828.44;10387551;28;20055;-80
2023/05/21 00:35:26;;;;;;;7.90;4.43;;;;;;;14.26;58.03;99819.69;10407920;28;20049;-80
2023/05/21 00:40:29;;;;;;;8.00;4.47;;;;;;;14.16;58.48;99816.09;10407182;28;20858;-80
2023/05/21 00:45:32;;;;;;;8.05;4.43;;;;;;;13.86;58.50;99810.53;10370553;28;20120;-80
2023/05/21 00:50:35;;;;;;;10.27;4.93;;;;;;;13.99;58.85;99809.50;10390502;28;20056;-80
2023/05/21 00:55:37;;;;;;;8.95;4.38;;;;;;;14.08;58.54;99800.91;10406769;28;20405;-80
2023/05/21 01:00:39;;;;;;;7.30;4.30;;;;;;;13.94;58.51;99795.88;10404096;28;20038;-80
2023/05/21 01:05:43;;;;;;;7.85;4.25;;;;;;;13.81;58.90;99789.84;10385378;28;20595;-80
2023/05/21 01:10:46;;;;;;;9.18;4.47;;;;;;;13.88;58.94;99791.03;10405131;28;20487;-80
2023/05/21 01:15:49;;;;;;;7.90;4.63;;;;;;;13.96;59.14;99788.69;10403486;28;20495;-80
2023/05/21 01:20:52;;;;;;;8.13;4.53;;;;;;;13.85;59.16;99791.28;10387989;28;20056;-80
2023/05/21 01:25:54;;;;;;;9.98;4.45;;;;;;;13.95;59.27;99787.00;10388813;28;20060;-80
2023/05/21 01:30:59;;;;;;;7.90;4.22;;;;;;;14.03;58.86;99789.91;10393628;28;20052;-80
2023/05/21 01:36:22;;;;;;;8.48;4.25;;;;;;;13.89;59.68;99790.09;10388546;28;20127;-80
2023/05/21 01:41:28;;;;;;;9.95;4.57;;;;;;;13.76;59.59;99787.56;10404179;28;20379;-80
2023/05/21 01:46:35;;;;;;;6.20;3.95;;;;;;;13.64;59.90;99788.47;10384596;28;20535;-80
2023/05/21 01:51:37;;;;;;;8.43;4.47;;;;;;;13.61;59.74;99780.00;10405894;28;20045;-80
2023/05/21 01:56:40;;;;;;;7.45;4.28;;;;;;;13.67;59.78;99779.53;10383100;28;20033;-80
2023/05/21 02:01:42;;;;;;;7.63;4.07;;;;;;;13.74;59.63;99772.84;10390314;28;20049;-80
2023/05/21 02:06:44;;;;;;;6.78;4.15;;;;;;;13.75;59.51;99772.75;10409996;28;20057;-80
2023/05/21 02:11:46;;;;;;;8.95;4.20;;;;;;;13.53;60.09;99775.31;10413321;28;20053;-80
2023/05/21 02:16:48;;;;;;;8.43;4.18;;;;;;;13.44;60.12;99772.50;10415109;28;20041;-80
2023/05/21 02:21:50;;;;;;;11.23;5.05;;;;;;;13.54;60.10;99765.63;10404495;28;20054;-80
2023/05/21 02:26:52;;;;;;;6.45;4.05;;;;;;;13.68;59.79;99762.78;10380478;28;20088;-80
2023/05/21 02:31:54;;;;;;;8.85;4.15;;;;;;;13.71;59.90;99759.94;10408327;28;20124;-80
2023/05/21 02:36:57;;;;;;;8.00;3.88;;;;;;;13.65;60.10;99753.38;10396994;28;20104;-80
2023/05/21 02:41:59;;;;;;;9.90;3.88;;;;;;;13.65;60.00;99749.91;10418576;28;20042;-80
2023/05/21 02:47:01;;;;;;;8.38;4.05;;;;;;;13.72;60.06;99748.47;10418412;28;20033;-80
2023/05/21 02:52:04;;;;;;;7.93;4.28;;;;;;;13.74;59.99;99747.41;10419624;28;20443;-80
2023/05/21 02:57:06;;;;;;;8.23;3.83;;;;;;;13.58;60.32;99754.78;10416993;28;20095;-80
2023/05/21 03:02:08;;;;;;;7.45;3.70;;;;;;;13.60;60.12;99757.28;10415538;28;20049;-80
2023/05/21 03:07:12;;;;;;;7.28;3.80;;;;;;;13.58;60.24;99748.66;10397300;28;20164;-80
2023/05/21 03:12:14;;;;;;;6.78;3.83;;;;;;;13.64;60.45;99750.84;10409798;28;20378;-80
2023/05/21 03:17:16;;;;;;;10.10;4.40;;;;;;;13.69;60.29;99756.59;10395171;28;20038;-80
2023/05/21 03:22:18;;;;;;;8.52;3.92;;;;;;;13.75;60.02;99738.59;10412137;28;20045;-80
2023/05/21 03:27:20;;;;;;;8.05;4.03;;;;;;;13.87;59.87;99741.22;10393108;28;20047;-80
2023/05/21 03:32:22;;;;;;;6.93;3.63;;;;;;;13.88;60.08;99741.09;10411536;28;20042;-80
2023/05/21 03:37:25;;;;;;;8.13;4.22;;;;;;;13.91;59.99;99751.38;10405550;28;20046;-80
2023/05/21 03:42:27;;;;;;;7.18;3.90;;;;;;;13.81;60.10;99739.91;10408798;28;20069;-80
2023/05/21 03:47:30;;;;;;;8.52;4.03;;;;;;;13.76;60.08;99742.88;10410998;28;20045;-80
2023/05/21 03:52:35;;;;;;;10.70;4.25;;;;;;;13.77;60.16;99741.94;10409613;28;20406;-80
2023/05/21 03:57:37;;;;;;;7.82;3.65;;;;;;;13.79;59.97;99739.19;10385816;28;20099;-80
2023/05/21 04:02:39;;;;;;;6.40;3.92;;;;;;;13.86;60.01;99745.63;10380520;28;20046;-80
2023/05/21 04:07:41;;;;;;;7.65;3.92;;;;;;;13.77;60.09;99738.47;10392596;28;20045;-80
2023/05/21 04:12:43;;;;;;;7.38;4.13;;;;;;;13.69;60.18;99746.94;10404846;28;20499;-80
2023/05/21 04:17:45;;;;;;;7.10;4.13;;;;;;;13.72;60.26;99745.84;10393279;28;20033;-80
2023/05/21 04:22:47;;;;;;;9.48;3.95;;;;;;;13.57;60.57;99749.63;10406125;28;20045;-80
2023/05/21 04:27:49;;;;;;;7.63;4.05;;;;;;;13.43;61.13;99747.19;10408504;28;20048;-80
2023/05/21 04:32:53;;;;;;;6.95;4.00;;;;;;;13.57;60.67;99760.16;10390375;28;20050;-80
2023/05/21 04:37:55;;;;;;;9.75;4.20;;;;;;;13.67;60.47;99755.88;10359083;28;20050;-80
2023/05/21 04:42:59;;;;;;;7.93;4.00;;;;;;;13.56;60.87;99759.31;10409671;28;20053;-80
2023/05/21 04:48:02;;;;;;;7.53;4.05;;;;;;;13.50;61.30;99764.16;10386689;28;20045;-80
2023/05/21 04:53:04;;;;;;;6.55;3.78;;;;;;;13.56;60.88;99763.72;10403162;28;20528;-80
2023/05/21 04:58:06;;;;;;;9.75;4.32;;;;;;;13.67;61.21;99767.25;10407785;28;20042;-80
2023/05/21 05:03:10;;;;;;;8.23;3.80;;;;;;;13.84;60.79;99763.31;10400287;28;20050;-80
2023/05/21 05:08:12;;;;;;;8.00;3.92;;;;;;;13.93;60.73;99764.41;10409085;28;20096;-80
2023/05/21 05:13:16;;;;;;;8.00;3.88;;;;;;;14.16;60.28;99761.72;10406506;28;20091;-80
2023/05/21 05:18:19;;;;;;;7.00;3.90;;;;;;;14.27;60.29;99766.97;10404404;28;20119;-80
2023/05/21 05:23:21;;;;;;;9.60;3.90;;;;;;;14.60;59.64;99760.91;10408462;28;20141;-80
2023/05/21 05:28:24;;;;;;;8.13;4.38;;;;;;;14.86;59.51;99761.47;10387125;28;20061;-81
2023/05/21 05:33:26;;;;;;;6.57;3.80;;;;;;;14.83;59.57;99752.03;10385813;28;20503;-80
2023/05/21 05:38:29;;;;;;;7.13;4.13;;;;;;;14.86;59.62;99758.84;10406000;28;20165;-80
2023/05/21 05:43:31;;;;;;;7.03;4.03;;;;;;;15.12;59.22;99761.03;10405476;28;20053;-80
2023/05/21 05:48:34;;;;;;;6.18;3.63;;;;;;;15.41;58.57;99750.75;10365294;28;20050;-80
2023/05/21 05:53:36;;;;;;;7.80;4.05;;;;;;;15.76;58.23;99751.31;10370096;28;20050;-80
2023/05/21 05:58:38;;;;;;;7.88;3.88;;;;;;;15.98;57.50;99752.97;10376173;28;20048;-80
2023/05/21 06:03:46;;;;;;;6.93;3.72;;;;;;;16.21;57.58;99755.34;10405427;28;20053;-80
2023/05/21 06:08:50;;;;;;;6.25;3.80;;;;;;;16.48;56.80;99752.16;10392756;28;20052;-80
2023/05/21 06:13:53;;;;;;;6.75;3.83;;;;;;;16.68;56.73;99751.25;10398905;28;20050;-80
2023/05/21 06:18:56;;;;;;;8.30;3.90;;;;;;;16.99;56.25;99744.94;10385767;28;20045;-80
2023/05/21 06:23:58;;;;;;;5.80;3.58;;;;;;;17.50;55.30;99750.03;10400581;28;20073;-80
2023/05/21 06:29:02;;;;;;;8.07;4.30;;;;;;;17.78;54.73;99746.50;10403137;28;20033;-81
2023/05/21 06:34:05;;;;;;;7.25;4.28;;;;;;;18.17;53.88;99746.41;10401241;28;20149;-81
2023/05/21 06:39:07;;;;;;;7.72;3.67;;;;;;;18.68;52.71;99741.50;10404542;28;20719;-80
2023/05/21 06:44:09;;;;;;;7.47;4.20;;;;;;;18.99;52.11;99737.53;10387123;28;20065;-80
2023/05/21 06:49:13;;;;;;;7.95;4.13;;;;;;;19.09;51.84;99734.84;10403849;28;20037;-80
2023/05/21 06:54:16;;;;;;;6.65;4.28;;;;;;;19.16;51.29;99734.09;10382053;28;20068;-80
2023/05/21 06:59:18;;;;;;;10.18;4.38;;;;;;;18.79;51.34;99741.28;10368530;28;20073;-80
2023/05/21 07:04:20;;;;;;;9.32;4.10;;;;;;;18.73;51.47;99739.22;10390013;28;20049;-80
2023/05/21 07:09:23;;;;;;;6.95;4.40;;;;;;;18.74;51.45;99748.84;10387490;28;20040;-80
2023/05/21 07:14:25;;;;;;;6.82;4.00;;;;;;;18.74;51.35;99737.41;10386742;28;20391;-80
2023/05/21 07:19:27;;;;;;;10.60;4.25;;;;;;;18.67;51.16;99746.94;10390563;28;20132;-80
2023/05/21 07:24:30;;;;;;;8.10;4.55;;;;;;;18.68;50.99;99744.16;10384615;28;20941;-80
2023/05/21 07:29:33;;;;;;;7.15;3.75;;;;;;;18.94;50.97;99741.59;10388535;28;20042;-80
2023/05/21 07:34:34;;;;;;;6.50;4.13;;;;;;;18.89;50.93;99736.75;10387081;28;20533;-80
2023/05/21 07:39:38;;;;;;;8.93;4.68;;;;;;;19.23;50.34;99739.63;10389901;28;20045;-80
2023/05/21 07:44:40;;;;;;;7.82;4.35;;;;;;;19.50;49.69;99736.06;10367039;28;20624;-80
2023/05/21 07:49:58;;;;;;;7.97;4.20;;;;;;;19.96;48.75;99733.13;10384869;28;20091;-80
2023/05/21 07:55:00;;;;;;;7.60;4.13;;;;;;;20.82;48.13;99726.78;10380684;28;20037;-80
2023/05/21 08:00:08;;;;;;;7.90;4.30;;;;;;;21.81;46.97;99720.41;10380587;28;20049;-80
2023/05/21 08:05:15;;;;;;;8.68;4.68;;;;;;;21.98;45.93;99726.53;10410613;28;20107;-83
2023/05/21 08:10:18;;;;;;;7.97;4.35;;;;;;;22.77;45.20;99713.16;10389011;28;20048;-83
2023/05/21 08:15:22;;;;;;;8.85;4.68;;;;;;;23.14;44.18;99710.63;10399832;28;20495;-82
2023/05/21 08:20:25;;;;;;;7.50;4.50;;;;;;;23.39;43.87;99714.78;10382409;28;20057;-83
2023/05/21 08:25:27;;;;;;;6.30;4.07;;;;;;;23.97;42.54;99701.59;10394902;28;20053;-83
2023/05/21 08:30:31;;;;;;;6.82;4.13;;;;;;;23.58;41.62;99706.28;10385709;28;20090;-83
2023/05/21 08:35:33;;;;;;;6.72;4.38;;;;;;;22.92;43.60;99703.44;10394262;28;20045;-83
2023/05/21 08:40:50;;;;;;;7.20;4.30;;;;;;;23.24;42.73;99697.88;10404484;28;20045;-83
2023/05/21 08:45:54;;;;;;;6.45;3.95;;;;;;;23.99;42.60;99694.22;10401694;28;20145;-83
2023/05/21 08:51:00;;;;;;;6.47;3.85;;;;;;;24.90;40.84;99700.00;10395814;28;20048;-82
2023/05/21 08:56:08;;;;;;;6.63;4.03;;;;;;;25.68;40.31;99675.03;10396682;28;20128;-83
2023/05/21 09:01:17;;;;;;;7.03;4.15;;;;;;;25.85;39.45;99679.88;10394523;28;20037;-83
2023/05/21 09:06:25;;;;;;;7.07;4.15;;;;;;;25.92;39.55;99678.09;10397387;28;20048;-83
2023/05/21 09:11:28;;;;;;;6.32;3.95;;;;;;;26.03;38.55;99662.50;10391420;28;20041;-83
2023/05/21 09:16:32;;;;;;;7.05;4.32;;;;;;;26.09;39.24;99656.38;10383640;28;20045;-82
2023/05/21 09:21:34;;;;;;;6.78;3.83;;;;;;;25.64;39.18;99657.69;10386939;28;20542;-83
2023/05/21 09:26:46;;;;;;;6.32;3.88;;;;;;;25.15;39.79;99665.69;10391199;28;20053;-83
2023/05/21 09:31:49;;;;;;;6.57;3.90;;;;;;;25.50;39.81;99662.13;10397340;28;20384;-83
2023/05/21 09:36:56;;;;;;;6.75;3.70;;;;;;;26.11;38.74;99662.34;10387297;28;20041;-82
2023/05/21 09:41:58;;;;;;;6.20;4.20;;;;;;;26.14;38.22;99654.72;10407105;28;20041;-82
2023/05/21 09:47:01;;;;;;;6.13;3.85;;;;;;;26.16;39.00;99646.50;10371266;28;20040;-83
2023/05/21 09:52:03;;;;;;;6.55;4.18;;;;;;;26.46;38.04;99647.88;10395352;28;20041;-83
2023/05/21 09:57:05;;;;;;;6.78;4.07;;;;;;;26.08;38.49;99636.75;10405408;28;20077;-83
2023/05/21 10:02:21;;;;;;;6.75;3.90;;;;;;;25.82;38.09;99636.59;10389394;28;20044;-83
2023/05/21 10:07:25;;;;;;;7.13;3.70;;;;;;;25.65;38.83;99629.88;10407667;28;20099;-83
2023/05/21 10:12:29;;;;;;;7.38;4.10;;;;;;;26.11;38.34;99635.53;10406988;28;20495;-82
2023/05/21 10:17:31;;;;;;;6.13;3.70;;;;;;;26.51;37.89;99623.97;10408235;28;20135;-83
2023/05/21 10:22:35;;;;;;;5.93;3.80;;;;;;;26.43;37.10;99622.28;10407996;28;20049;-84
2023/05/21 10:27:37;;;;;;;5.80;3.83;;;;;;;26.11;37.71;99616.78;10405588;28;20395;-83
2023/05/21 10:32:40;;;;;;;6.32;3.78;;;;;;;26.09;37.05;99611.63;10402607;28;20071;-83
2023/05/21 10:37:44;;;;;;;9.07;3.60;;;;;;;25.78;37.60;99597.81;10409675;28;20033;-83
2023/05/21 10:43:04;;;;;;;5.85;3.65;;;;;;;25.77;37.82;99599.66;10403728;28;20129;-83
2023/05/21 10:48:15;;;;;;;5.78;3.30;;;;;;;25.56;38.05;99606.94;10399337;28;20057;-82
2023/05/21 10:53:42;;;;;;;5.32;3.38;;;;;;;25.34;37.57;99599.97;10391345;28;20090;-83
2023/05/21 10:59:17;;;;;;;5.45;3.35;;;;;;;25.22;38.91;99590.81;10385829;28;20045;-83
2023/05/21 11:04:25;;;;;;;5.85;3.58;;;;;;;25.09;38.72;99600.38;10408253;28;20044;-83
2023/05/21 11:09:27;;;;;;;6.00;3.70;;;;;;;25.07;38.37;99597.06;10412786;28;20049;-83
2023/05/21 11:14:41;;;;;;;4.93;3.30;;;;;;;24.84;38.36;99592.91;10413353;28;20125;-83
2023/05/21 11:19:46;;;;;;;5.85;3.53;;;;;;;24.98;38.59;99594.69;10398381;28;20033;-83
2023/05/21 11:24:49;;;;;;;5.75;3.45;;;;;;;24.99;38.37;99588.34;10409028;28;20064;-83
2023/05/21 11:29:54;;;;;;;7.28;3.75;;;;;;;24.92;38.69;99582.91;10411547;28;20045;-83
2023/05/21 11:35:01;;;;;;;6.05;3.60;;;;;;;25.00;38.54;99584.63;10386123;28;20042;-83
2023/05/21 11:40:16;;;;;;;5.72;3.42;;;;;;;25.38;39.04;99578.00;10404398;28;20124;-83
2023/05/21 11:45:30;;;;;;;6.45;3.50;;;;;;;25.49;38.28;99574.75;10396838;28;20533;-83
2023/05/21 11:50:33;;;;;;;5.43;3.40;;;;;;;25.54;37.25;99572.34;10407005;28;20061;-83
2023/05/21 11:55:42;;;;;;;6.68;3.60;;;;;;;25.44;36.92;99579.88;10397308;28;20038;-84
2023/05/21 12:00:44;;;;;;;6.70;3.53;;;;;;;25.58;38.34;99578.94;10393024;28;20095;-83
2023/05/21 12:05:47;;;;;;;5.45;3.70;;;;;;;25.34;38.05;99578.56;10395232;28;20490;-83
2023/05/21 12:10:57;;;;;;;5.30;3.35;;;;;;;25.58;37.67;99573.59;10396120;28;20063;-83
2023/05/21 12:16:01;;;;;;;5.38;3.25;;;;;;;25.83;38.01;99566.72;10391828;28;20085;-83
2023/05/21 12:21:05;;;;;;;5.28;3.30;;;;;;;25.55;38.21;99579.31;10391414;28;20507;-83
2023/05/21 12:26:08;;;;;;;4.35;3.10;;;;;;;25.44;37.92;99569.19;10396060;28;20061;-83
2023/05/21 12:31:16;;;;;;;6.28;3.80;;;;;;;25.27;37.63;99575.81;10374612;28;20041;-83
2023/05/21 12:36:25;;;;;;;5.80;3.80;;;;;;;25.49;38.31;99579.31;10404361;28;20049;-83
2023/05/21 12:41:28;;;;;;;5.78;3.63;;;;;;;25.36;37.79;99563.13;10400973;28;20037;-83
2023/05/21 12:46:30;;;;;;;5.63;3.35;;;;;;;25.42;38.05;99565.03;10399983;28;20045;-83
2023/05/21 12:51:38;;;;;;;6.47;3.72;;;;;;;25.85;37.63;99564.66;10403272;28;20065;-83
2023/05/21 12:56:44;;;;;;;7.53;4.23;;;;;;;25.47;37.57;99555.38;10394888;28;20038;-83
2023/05/21 13:01:47;;;;;;;5.90;3.83;;;;;;;25.39;38.27;99562.72;10386237;28;20736;-83
2023/05/21 13:06:49;;;;;;;6.15;3.85;;;;;;;25.41;38.75;99544.63;10372366;28;20499;-83
2023/05/21 13:11:51;;;;;;;5.25;3.60;;;;;;;25.58;38.47;99546.81;10405111;28;20049;-83
2023/05/21 13:16:52;;;;;;;6.22;3.63;;;;;;;25.58;38.78;99549.50;10404061;28;20041;-84
2023/05/21 13:21:55;;;;;;;6.20;3.58;;;;;;;25.79;38.06;99536.00;10397489;28;20042;-84
2023/05/21 13:26:57;;;;;;;6.47;3.88;;;;;;;25.60;37.73;99531.38;10396531;28;20046;-83
2023/05/21 13:31:59;;;;;;;5.32;3.47;;;;;;;25.51;38.40;99523.72;10392870;28;20049;-83
2023/05/21 13:37:01;;;;;;;6.82;3.72;;;;;;;25.45;38.66;99522.63;10405582;28;20125;-83
2023/05/21 13:42:04;;;;;;;6.93;3.75;;;;;;;25.66;39.13;99527.06;10394069;28;20046;-83
2023/05/21 13:47:07;;;;;;;6.45;3.55;;;;;;;25.78;38.33;99520.97;10366542;28;20391;-83
2023/05/21 13:52:10;;;;;;;6.53;3.53;;;;;;;25.83;38.32;99523.06;10401646;28;20502;-84
2023/05/21 13:57:14;;;;;;;5.65;3.17;;;;;;;25.90;36.93;99507.81;10392094;28;20050;-83
2023/05/21 14:02:18;;;;;;;5.47;3.55;;;;;;;26.16;37.49;99501.75;10383633;28;20511;-84
2023/05/21 14:07:22;;;;;;;6.00;3.72;;;;;;;26.43;37.07;99511.50;10381849;28;20037;-84
2023/05/21 14:12:34;;;;;;;6.07;3.70;;;;;;;26.16;36.26;99501.75;10401786;28;20411;-83
2023/05/21 14:17:38;;;;;;;5.57;3.35;;;;;;;26.19;36.81;99504.88;10399742;28;20069;-83
2023/05/21 14:22:43;;;;;;;6.68;3.50;;;;;;;26.17;36.81;99506.09;10387575;28;20053;-84
2023/05/21 14:27:45;;;;;;;5.68;3.53;;;;;;;26.32;36.69;99510.25;10372858;28;20058;-83
2023/05/21 14:32:51;;;;;;;5.10;3.38;;;;;;;26.18;36.63;99494.34;10395242;28;20409;-83
2023/05/21 14:37:53;;;;;;;5.18;3.33;;;;;;;26.48;37.26;99503.69;10409447;28;20052;-84
2023/05/21 14:42:55;;;;;;;5.72;3.45;;;;;;;26.80;36.31;99484.13;10386128;28;20687;-83
2023/05/21 14:48:06;;;;;;;5.57;3.55;;;;;;;26.62;37.04;99506.22;10410257;28;20047;-83
2023/05/21 14:53:10;;;;;;;6.18;3.42;;;;;;;26.18;36.77;99510.44;10398870;28;20080;-83
2023/05/21 14:58:13;;;;;;;5.97;3.58;;;;;;;26.24;36.85;99502.38;10410682;28;20086;-83
2023/05/21 15:03:25;;;;;;;5.70;3.75;;;;;;;26.20;35.72;99498.47;10415941;28;20045;-84
2023/05/21 15:08:28;;;;;;;5.55;3.60;;;;;;;26.20;37.13;99503.00;10412062;28;21423;-84
2023/05/21 15:13:30;;;;;;;6.32;3.50;;;;;;;25.96;37.09;99506.25;10416636;28;20033;-84
2023/05/21 15:18:32;;;;;;;5.75;3.47;;;;;;;26.12;36.96;99500.53;10383626;28;20070;-84
2023/05/21 15:23:35;;;;;;;6.20;3.78;;;;;;;26.16;37.00;99502.56;10372505;28;20042;-84
2023/05/21 15:28:37;;;;;;;6.20;3.70;;;;;;;25.98;37.16;99498.81;10373569;28;20050;-84
2023/05/21 15:33:40;;;;;;;5.82;3.72;;;;;;;25.95;37.26;99494.66;10375697;28;20100;-84
2023/05/21 15:38:43;;;;;;;6.60;3.90;;;;;;;26.03;37.72;99493.66;10391851;28;20041;-84
2023/05/21 15:43:45;;;;;;;6.78;3.97;;;;;;;26.02;37.54;99486.69;10370378;28;20076;-84
2023/05/21 15:48:47;;;;;;;7.60;3.97;;;;;;;25.70;37.75;99478.28;10400335;28;20490;-84
2023/05/21 15:53:49;;;;;;;6.57;3.88;;;;;;;25.58;38.03;99481.72;10409351;28;20446;-84
2023/05/21 15:58:51;;;;;;;6.20;3.70;;;;;;;25.52;38.51;99482.50;10380764;28;20049;-84
2023/05/21 16:03:53;;;;;;;6.43;4.13;;;;;;;25.48;38.63;99482.06;10378764;28;20144;-84
2023/05/21 16:08:56;;;;;;;6.47;3.80;;;;;;;25.54;38.65;99481.28;10403280;28;20064;-84
2023/05/21 16:13:58;;;;;;;5.40;3.55;;;;;;;25.58;38.62;99479.88;10410168;28;20052;-84
2023/05/21 16:19:00;;;;;;;5.65;3.50;;;;;;;25.60;38.69;99466.25;10411962;28;20052;-84
2023/05/21 16:24:03;;;;;;;6.40;3.80;;;;;;;25.54;38.21;99475.09;10387310;28;20125;-83
2023/05/21 16:29:04;;;;;;;5.70;3.58;;;;;;;25.63;38.28;99474.72;10384623;28;20033;-84
2023/05/21 16:34:06;;;;;;;6.55;3.83;;;;;;;25.71;38.29;99469.19;10392423;28;20665;-84
2023/05/21 16:39:08;;;;;;;6.15;3.88;;;;;;;25.70;38.35;99474.75;10410113;28;20095;-84
2023/05/21 16:44:11;;;;;;;5.57;3.63;;;;;;;25.72;38.17;99478.06;10409732;28;20973;-84
2023/05/21 16:49:13;;;;;;;6.63;3.90;;;;;;;25.94;38.14;99476.91;10408824;28;20065;-84
2023/05/21 16:54:14;;;;;;;6.38;4.03;;;;;;;25.67;38.19;99473.28;10383554;28;20049;-84
2023/05/21 16:59:16;;;;;;;6.07;3.78;;;;;;;25.66;38.66;99474.34;10374995;28;20045;-84
2023/05/21 17:04:18;;;;;;;6.43;4.00;;;;;;;25.55;38.80;99479.44;10403576;28;20044;-84
2023/05/21 17:09:20;;;;;;;5.43;3.53;;;;;;;25.58;38.66;99476.34;10398707;28;20038;-84
2023/05/21 17:14:22;;;;;;;5.45;3.85;;;;;;;25.76;38.54;99490.88;10396679;28;20046;-84
2023/05/21 17:19:36;;;;;;;6.03;3.88;;;;;;;25.72;38.87;99486.94;10396969;28;20063;-84
2023/05/21 17:24:38;;;;;;;7.10;3.78;;;;;;;25.64;39.03;99488.94;10370945;28;20065;-84
2023/05/21 17:29:40;;;;;;;6.85;4.00;;;;;;;25.57;39.30;99488.09;10371453;28;20068;-84
2023/05/21 17:34:42;;;;;;;5.68;3.80;;;;;;;25.34;39.31;99490.22;10407206;28;20037;-85
2023/05/21 17:39:44;;;;;;;6.93;4.22;;;;;;;25.29;39.38;99489.94;10389870;28;20045;-84
2023/05/21 17:44:46;;;;;;;6.13;4.05;;;;;;;25.15;39.77;99497.06;10386970;28;20426;-84
2023/05/21 17:49:48;;;;;;;6.47;4.00;;;;;;;25.02;39.79;99494.28;10408626;28;20525;-84
2023/05/21 17:54:50;;;;;;;5.75;3.88;;;;;;;24.92;40.06;99496.47;10402519;28;20049;-84
2023/05/21 17:59:53;;;;;;;7.90;3.83;;;;;;;24.74;40.14;99496.13;10396445;28;20045;-84
2023/05/21 18:04:55;;;;;;;5.78;3.63;;;;;;;24.68;40.64;99499.53;10406747;28;20049;-84
2023/05/21 18:09:57;;;;;;;6.75;3.88;;;;;;;24.39;40.64;99503.16;10407813;28;20099;-84
2023/05/21 18:15:01;;;;;;;7.78;4.07;;;;;;;24.27;40.94;99508.19;10407616;28;20140;-84
2023/05/21 18:20:03;;;;;;;8.75;4.22;;;;;;;24.14;41.28;99508.03;10407363;28;20064;-84
2023/05/21 18:25:06;;;;;;;6.25;3.97;;;;;;;24.09;41.60;99504.28;10406319;28;20060;-84
2023/05/21 18:30:08;;;;;;;6.60;4.03;;;;;;;23.98;41.87;99507.41;10404674;28;20121;-84
2023/05/21 18:35:10;;;;;;;7.57;4.35;;;;;;;23.77;42.60;99505.50;10410358;28;20095;-84
2023/05/21 18:40:16;;;;;;;6.88;4.20;;;;;;;23.52;43.33;99512.16;10406524;28;20064;-84
2023/05/21 18:45:18;;;;;;;6.28;4.35;;;;;;;23.37;43.85;99514.78;10383749;28;20112;-84
2023/05/21 18:50:20;;;;;;;6.43;4.07;;;;;;;23.17;44.66;99510.16;10405125;28;20137;-84
2023/05/21 18:55:22;;;;;;;8.20;4.47;;;;;;;22.87;45.37;99511.13;10409890;28;20053;-84
2023/05/21 19:00:24;;;;;;;8.10;4.43;;;;;;;22.61;46.06;99514.97;10387601;28;20042;-84
2023/05/21 19:05:26;;;;;;;8.13;4.30;;;;;;;22.33;46.60;99519.16;10420731;28;20055;-84
2023/05/21 19:10:29;;;;;;;7.22;4.60;;;;;;;22.00;47.51;99516.81;10400192;28;20136;-84
2023/05/21 19:15:31;;;;;;;7.00;4.13;;;;;;;21.81;47.85;99515.41;10412425;28;20041;-85
2023/05/21 19:20:35;;;;;;;7.50;4.57;;;;;;;21.63;48.39;99517.50;10414296;28;20036;-85
2023/05/21 19:25:37;;;;;;;7.57;4.38;;;;;;;21.38;49.10;99521.22;10397308;28;20061;-84
2023/05/21 19:30:39;;;;;;;7.20;4.43;;;;;;;21.14;49.59;99526.56;10401451;28;20041;-85
2023/05/21 19:35:42;;;;;;;9.68;4.82;;;;;;;20.89;50.36;99531.91;10385541;28;20049;-84
2023/05/21 19:40:44;;;;;;;7.63;4.72;;;;;;;20.76;50.49;99539.56;10401244;28;20044;-85
2023/05/21 19:45:46;;;;;;;6.57;4.30;;;;;;;20.59;51.07;99545.84;10417095;28;20132;-84
2023/05/21 19:50:48;;;;;;;8.57;4.93;;;;;;;20.47;51.33;99547.13;10414632;28;20045;-83
2023/05/21 19:55:50;;;;;;;9.52;4.90;;;;;;;20.42;51.64;99549.44;10409013;28;20048;-82
2023/05/21 20:00:54;;;;;;;8.70;4.70;;;;;;;20.27;52.11;99551.88;10403145;28;20498;-82
2023/05/21 20:05:57;;;;;;;7.63;4.18;;;;;;;20.04;52.71;99550.00;10390436;28;20046;-82
2023/05/21 20:10:59;;;;;;;7.45;4.50;;;;;;;19.96;52.95;99558.78;10409973;28;20073;-82
2023/05/21 20:16:01;;;;;;;6.55;4.28;;;;;;;19.72;53.44;99573.72;10394621;28;20491;-82
2023/05/21 20:21:05;;;;;;;7.60;4.88;;;;;;;19.61;53.78;99569.53;10402896;28;20064;-82
2023/05/21 20:26:07;;;;;;;8.23;4.65;;;;;;;19.53;54.23;99571.28;10406928;28;20051;-82
2023/05/21 20:31:09;;;;;;;8.93;4.97;;;;;;;19.41;54.27;99574.22;10399304;28;20518;-82
2023/05/21 20:36:14;;;;;;;8.20;4.60;;;;;;;19.33;54.74;99586.59;10400231;28;20049;-82
2023/05/21 20:41:16;;;;;;;7.13;4.47;;;;;;;19.20;54.93;99584.34;10405602;28;20494;-82
2023/05/21 20:46:18;;;;;;;10.30;4.60;;;;;;;19.11;55.21;99577.34;10395963;28;20056;-82
2023/05/21 20:51:20;;;;;;;8.68;4.95;;;;;;;18.99;55.63;99577.69;10397496;28;20073;-83
2023/05/21 20:56:23;;;;;;;8.25;4.72;;;;;;;18.87;55.74;99585.03;10386232;28;20414;-82
2023/05/21 21:01:42;;;;;;;8.63;4.93;;;;;;;18.70;56.06;99582.41;10405686;28;20050;-82
2023/05/21 21:06:47;;;;;;;6.88;4.30;;;;;;;18.72;56.35;99583.91;10387469;28;20076;-82
2023/05/21 21:11:48;;;;;;;9.00;4.65;;;;;;;18.67;56.48;99582.72;10400372;28;20041;-82
2023/05/21 21:16:50;;;;;;;8.43;4.95;;;;;;;18.66;56.57;99581.88;10401269;28;20051;-82
2023/05/21 21:21:52;;;;;;;8.68;4.88;;;;;;;18.63;56.40;99587.47;10407102;28;20045;-82
2023/05/21 21:26:54;;;;;;;10.25;4.90;;;;;;;18.60;56.55;99590.41;10402052;28;20048;-83
2023/05/21 21:31:56;;;;;;;8.13;4.50;;;;;;;18.51;56.79;99591.31;10396118;28;20132;-83
2023/05/21 21:36:58;;;;;;;6.80;4.50;;;;;;;18.38;57.15;99585.56;10405461;28;20099;-82
2023/05/21 21:42:00;;;;;;;10.18;4.80;;;;;;;18.28;57.22;99582.16;10407482;28;20120;-83
2023/05/21 21:47:02;;;;;;;8.20;4.78;;;;;;;18.22;57.64;99578.25;10401950;28;20095;-82
2023/05/21 21:52:05;;;;;;;7.97;4.70;;;;;;;18.18;57.47;99568.91;10403841;28;20144;-82
2023/05/21 21:57:07;;;;;;;8.27;4.72;;;;;;;18.14;57.69;99582.59;10392519;28;20105;-82
2023/05/21 22:02:09;;;;;;;7.78;4.80;;;;;;;18.10;57.84;99578.56;10397407;28;20042;-83
2023/05/21 22:07:15;;;;;;;8.07;4.75;;;;;;;18.05;57.89;99581.69;10400972;28;20080;-82
2023/05/21 22:12:17;;;;;;;8.15;5.05;;;;;;;18.05;57.88;99578.19;10383353;28;20546;-82
2023/05/21 22:17:20;;;;;;;10.00;5.38;;;;;;;17.91;58.33;99576.03;10396333;28;20491;-82
2023/05/21 22:22:22;;;;;;;8.25;4.78;;;;;;;17.85;58.45;99577.47;10387496;28;20079;-83
2023/05/21 22:27:24;;;;;;;8.77;5.10;;;;;;;17.78;58.36;99584.31;10393622;28;20060;-82
2023/05/21 22:32:26;;;;;;;9.05;4.90;;;;;;;17.71;58.34;99577.91;10397910;28;20057;-83
2023/05/21 22:37:27;;;;;;;8.80;4.97;;;;;;;17.63;58.42;99581.28;10415623;28;20045;-83
2023/05/21 22:42:29;;;;;;;8.80;5.00;;;;;;;17.57;59.09;99592.44;10414392;28;20108;-83
2023/05/21 22:47:31;;;;;;;7.65;4.72;;;;;;;17.45;58.86;99588.31;10397499;28;20034;-82
2023/05/21 22:52:33;;;;;;;8.73;4.90;;;;;;;17.37;59.10;99580.25;10413425;28;20049;-83
2023/05/21 22:57:35;;;;;;;8.95;5.50;;;;;;;17.34;59.32;99583.22;10399757;28;20045;-82
2023/05/21 23:02:37;;;;;;;7.90;4.90;;;;;;;17.25;59.47;99589.31;10407986;28;20885;-83
2023/05/21 23:07:40;;;;;;;8.20;5.18;;;;;;;17.21;59.58;99589.72;10378761;28;20038;-82
2023/05/21 23:12:42;;;;;;;7.85;4.63;;;;;;;17.16;59.74;99587.50;10412781;28;20124;-82
2023/05/21 23:17:44;;;;;;;9.65;5.05;;;;;;;17.11;59.71;99584.47;10399932;28;20048;-83
2023/05/21 23:22:46;;;;;;;9.95;5.00;;;;;;;17.01;60.02;99591.56;10414913;28;20549;-83
2023/05/21 23:27:48;;;;;;;9.55;5.25;;;;;;;17.00;59.87;99582.81;10388181;28;20498;-83